sensor_id;sensor_type;location;lat;lon;timestamp;pressure;altitude;pressure_sealevel;temperature;humidity
64679;BME280;51094;53.864;27.676;2024-02-23T00:02:21;98168.75;;;4.67;89.20
64679;BME280;51094;53.864;27.676;2024-02-23T00:04:48;98135.69;;;4.47;89.26
64679;BME280;51094;53.864;27.676;2024-02-23T00:07:15;98163.69;;;4.66;89.68
64679;BME280;51094;53.864;27.676;2024-02-23T00:09:42;98138.81;;;4.52;89.03
64679;BME280;51094;53.864;27.676;2024-02-23T00:12:09;98006.06;;;3.69;88.87
64679;BME280;51094;53.864;27.676;2024-02-23T00:14:37;98126.66;;;4.54;89.99
64679;BME280;51094;53.864;27.676;2024-02-23T00:17:05;98084.78;;;4.25;89.27
64679;BME280;51094;53.864;27.676;2024-02-23T00:19:32;98099.63;;;4.34;89.19
64679;BME280;51094;53.864;27.676;2024-02-23T00:21:59;98137.63;;;4.71;89.82
64679;BME280;51094;53.864;27.676;2024-02-23T00:24:26;98145.13;;;4.61;89.56
64679;BME280;51094;53.864;27.676;2024-02-23T00:26:54;98141.66;;;4.75;89.42
64679;BME280;51094;53.864;27.676;2024-02-23T00:29:21;98072.34;;;4.32;88.42
64679;BME280;51094;53.864;27.676;2024-02-23T00:31:52;98063.81;;;4.31;89.41
64679;BME280;51094;53.864;27.676;2024-02-23T00:34:22;98129.81;;;4.72;88.70
64679;BME280;51094;53.864;27.676;2024-02-23T00:36:50;98124.97;;;4.67;89.28
64679;BME280;51094;53.864;27.676;2024-02-23T00:39:16;98041.22;;;4.22;88.74
64679;BME280;51094;53.864;27.676;2024-02-23T00:41:43;98062.84;;;4.20;89.51
64679;BME280;51094;53.864;27.676;2024-02-23T00:44:11;98122.81;;;4.74;88.57
64679;BME280;51094;53.864;27.676;2024-02-23T00:46:39;97913.34;;;3.45;88.03
64679;BME280;51094;53.864;27.676;2024-02-23T00:49:09;98128.47;;;4.66;88.31
64679;BME280;51094;53.864;27.676;2024-02-23T00:51:36;98120.00;;;4.64;88.65
64679;BME280;51094;53.864;27.676;2024-02-23T00:54:03;98044.84;;;4.20;88.40
64679;BME280;51094;53.864;27.676;2024-02-23T00:56:30;98095.88;;;4.53;88.36
64679;BME280;51094;53.864;27.676;2024-02-23T00:59:11;98096.78;;;4.52;88.26
64679;BME280;51094;53.864;27.676;2024-02-23T01:01:38;98126.09;;;4.63;88.99
64679;BME280;51094;53.864;27.676;2024-02-23T01:04:05;98125.88;;;4.66;88.97
64679;BME280;51094;53.864;27.676;2024-02-23T01:06:32;98095.25;;;4.49;88.59
64679;BME280;51094;53.864;27.676;2024-02-23T01:09:00;98126.63;;;4.68;89.09
64679;BME280;51094;53.864;27.676;2024-02-23T01:11:27;98100.00;;;4.55;88.78
64679;BME280;51094;53.864;27.676;2024-02-23T01:13:54;98131.03;;;4.66;88.68
64679;BME280;51094;53.864;27.676;2024-02-23T01:16:21;98105.06;;;4.57;88.84
64679;BME280;51094;53.864;27.676;2024-02-23T01:18:48;98122.38;;;4.67;88.26
64679;BME280;51094;53.864;27.676;2024-02-23T01:21:18;98105.88;;;4.57;88.35
64679;BME280;51094;53.864;27.676;2024-02-23T01:23:45;98123.31;;;4.66;88.39
64679;BME280;51094;53.864;27.676;2024-02-23T01:26:15;98123.50;;;4.63;88.47
64679;BME280;51094;53.864;27.676;2024-02-23T01:28:42;98116.28;;;4.56;88.30
64679;BME280;51094;53.864;27.676;2024-02-23T01:31:10;98079.66;;;4.38;88.27
64679;BME280;51094;53.864;27.676;2024-02-23T01:33:38;97979.22;;;3.73;87.57
64679;BME280;51094;53.864;27.676;2024-02-23T01:36:06;98089.03;;;4.39;88.96
64679;BME280;51094;53.864;27.676;2024-02-23T01:38:34;98132.53;;;4.56;87.49
64679;BME280;51094;53.864;27.676;2024-02-23T01:41:01;98125.94;;;4.52;88.05
64679;BME280;51094;53.864;27.676;2024-02-23T01:43:29;98113.13;;;4.38;88.51
64679;BME280;51094;53.864;27.676;2024-02-23T01:45:56;98130.69;;;4.58;88.62
64679;BME280;51094;53.864;27.676;2024-02-23T01:48:23;98112.97;;;4.54;88.02
64679;BME280;51094;53.864;27.676;2024-02-23T01:50:50;98120.59;;;4.55;88.33
64679;BME280;51094;53.864;27.676;2024-02-23T01:53:18;98017.78;;;4.00;88.15
64679;BME280;51094;53.864;27.676;2024-02-23T01:55:47;98112.28;;;4.64;88.01
64679;BME280;51094;53.864;27.676;2024-02-23T01:58:15;98097.44;;;4.55;88.40
64679;BME280;51094;53.864;27.676;2024-02-23T02:00:43;98114.13;;;4.62;88.36
64679;BME280;51094;53.864;27.676;2024-02-23T02:03:10;98111.56;;;4.62;88.16
64679;BME280;51094;53.864;27.676;2024-02-23T02:05:39;98100.72;;;4.57;87.80
64679;BME280;51094;53.864;27.676;2024-02-23T02:08:06;98090.63;;;4.54;88.25
64679;BME280;51094;53.864;27.676;2024-02-23T02:10:34;98105.69;;;4.60;88.25
64679;BME280;51094;53.864;27.676;2024-02-23T02:13:06;98021.13;;;4.15;88.03
64679;BME280;51094;53.864;27.676;2024-02-23T02:15:34;98025.06;;;4.20;87.80
64679;BME280;51094;53.864;27.676;2024-02-23T02:18:01;98101.59;;;4.71;87.35
64679;BME280;51094;53.864;27.676;2024-02-23T02:20:32;98136.19;;;4.66;87.27
64679;BME280;51094;53.864;27.676;2024-02-23T02:23:01;98110.63;;;4.63;87.04
64679;BME280;51094;53.864;27.676;2024-02-23T02:25:42;98086.69;;;4.49;87.67
64679;BME280;51094;53.864;27.676;2024-02-23T02:28:31;98068.53;;;4.38;87.16
64679;BME280;51094;53.864;27.676;2024-02-23T02:31:07;98013.09;;;4.07;87.90
64679;BME280;51094;53.864;27.676;2024-02-23T02:33:48;98070.09;;;4.40;87.38
64679;BME280;51094;53.864;27.676;2024-02-23T02:36:27;98081.13;;;4.42;87.14
64679;BME280;51094;53.864;27.676;2024-02-23T02:38:54;98068.44;;;4.39;87.90
64679;BME280;51094;53.864;27.676;2024-02-23T02:41:23;98105.41;;;4.38;87.11
64679;BME280;51094;53.864;27.676;2024-02-23T02:43:51;98092.88;;;4.46;87.26
64679;BME280;51094;53.864;27.676;2024-02-23T02:46:18;98057.16;;;4.15;87.41
64679;BME280;51094;53.864;27.676;2024-02-23T02:48:45;98033.63;;;4.21;88.02
64679;BME280;51094;53.864;27.676;2024-02-23T02:51:15;98057.13;;;4.42;87.35
64679;BME280;51094;53.864;27.676;2024-02-23T02:53:44;98013.31;;;4.16;88.12
64679;BME280;51094;53.864;27.676;2024-02-23T02:56:11;98092.91;;;4.59;87.79
64679;BME280;51094;53.864;27.676;2024-02-23T02:58:38;98052.06;;;4.40;87.61
64679;BME280;51094;53.864;27.676;2024-02-23T03:01:08;98062.81;;;4.47;87.67
64679;BME280;51094;53.864;27.676;2024-02-23T03:03:40;98049.50;;;4.40;87.10
64679;BME280;51094;53.864;27.676;2024-02-23T03:06:25;98058.69;;;4.44;87.12
64679;BME280;51094;53.864;27.676;2024-02-23T03:09:00;98104.13;;;4.58;87.98
64679;BME280;51094;53.864;27.676;2024-02-23T03:11:28;98065.81;;;4.53;87.45
64679;BME280;51094;53.864;27.676;2024-02-23T03:13:55;97990.38;;;4.13;87.67
64679;BME280;51094;53.864;27.676;2024-02-23T03:16:22;97879.41;;;3.40;87.70
64679;BME280;51094;53.864;27.676;2024-02-23T03:18:58;98078.81;;;4.64;86.87
64679;BME280;51094;53.864;27.676;2024-02-23T03:21:25;98077.03;;;4.52;87.05
64679;BME280;51094;53.864;27.676;2024-02-23T03:23:52;98085.81;;;4.62;87.83
64679;BME280;51094;53.864;27.676;2024-02-23T03:26:19;98056.53;;;4.51;86.99
64679;BME280;51094;53.864;27.676;2024-02-23T03:28:47;98037.56;;;4.39;87.48
64679;BME280;51094;53.864;27.676;2024-02-23T03:31:15;98037.56;;;4.39;87.60
64679;BME280;51094;53.864;27.676;2024-02-23T03:33:42;98049.09;;;4.46;87.34
64679;BME280;51094;53.864;27.676;2024-02-23T03:36:09;98074.59;;;4.63;87.48
64679;BME280;51094;53.864;27.676;2024-02-23T03:38:36;98078.28;;;4.59;87.25
64679;BME280;51094;53.864;27.676;2024-02-23T03:41:03;98040.94;;;4.27;86.93
64679;BME280;51094;53.864;27.676;2024-02-23T03:43:31;98062.59;;;4.50;86.68
64679;BME280;51094;53.864;27.676;2024-02-23T03:46:00;98083.94;;;4.52;86.62
64679;BME280;51094;53.864;27.676;2024-02-23T03:48:27;98086.78;;;4.47;86.71
64679;BME280;51094;53.864;27.676;2024-02-23T03:50:54;97945.66;;;3.62;87.45
64679;BME280;51094;53.864;27.676;2024-02-23T03:53:21;98029.59;;;4.17;87.08
64679;BME280;51094;53.864;27.676;2024-02-23T03:55:49;98088.16;;;4.53;87.69
64679;BME280;51094;53.864;27.676;2024-02-23T03:58:16;98074.16;;;4.57;87.19
64679;BME280;51094;53.864;27.676;2024-02-23T04:00:43;98033.31;;;4.38;87.99
64679;BME280;51094;53.864;27.676;2024-02-23T04:03:10;98078.00;;;4.64;87.35
64679;BME280;51094;53.864;27.676;2024-02-23T04:05:37;98048.31;;;4.58;87.37
64679;BME280;51094;53.864;27.676;2024-02-23T04:08:05;98029.31;;;4.34;87.64
64679;BME280;51094;53.864;27.676;2024-02-23T04:10:33;98061.84;;;4.75;87.74
64679;BME280;51094;53.864;27.676;2024-02-23T04:13:00;98058.75;;;4.70;86.52
64679;BME280;51094;53.864;27.676;2024-02-23T04:15:28;98060.78;;;4.64;86.92
64679;BME280;51094;53.864;27.676;2024-02-23T04:17:55;98052.53;;;4.59;86.48
64679;BME280;51094;53.864;27.676;2024-02-23T04:20:27;98057.88;;;4.56;86.27
64679;BME280;51094;53.864;27.676;2024-02-23T04:22:55;98054.59;;;4.54;86.40
64679;BME280;51094;53.864;27.676;2024-02-23T04:25:22;98052.31;;;4.50;86.95
64679;BME280;51094;53.864;27.676;2024-02-23T04:27:49;98042.75;;;4.52;87.69
64679;BME280;51094;53.864;27.676;2024-02-23T04:30:16;98023.56;;;4.43;86.65
64679;BME280;51094;53.864;27.676;2024-02-23T04:32:43;98048.31;;;4.58;86.97
64679;BME280;51094;53.864;27.676;2024-02-23T04:35:11;97991.53;;;4.34;87.47
64679;BME280;51094;53.864;27.676;2024-02-23T04:37:38;98025.94;;;4.46;86.87
64679;BME280;51094;53.864;27.676;2024-02-23T04:40:06;98039.72;;;4.45;87.30
64679;BME280;51094;53.864;27.676;2024-02-23T04:42:34;97870.31;;;3.34;86.83
64679;BME280;51094;53.864;27.676;2024-02-23T04:45:01;98052.22;;;4.51;87.19
64679;BME280;51094;53.864;27.676;2024-02-23T04:47:28;98055.22;;;4.58;87.48
64679;BME280;51094;53.864;27.676;2024-02-23T04:49:55;98054.28;;;4.59;87.73
64679;BME280;51094;53.864;27.676;2024-02-23T04:52:22;98046.88;;;4.54;87.41
64679;BME280;51094;53.864;27.676;2024-02-23T04:54:49;98050.66;;;4.49;87.14
64679;BME280;51094;53.864;27.676;2024-02-23T04:57:16;98037.34;;;4.42;87.44
64679;BME280;51094;53.864;27.676;2024-02-23T04:59:45;98060.47;;;4.56;87.32
64679;BME280;51094;53.864;27.676;2024-02-23T05:02:12;98038.81;;;4.46;87.32
64679;BME280;51094;53.864;27.676;2024-02-23T05:04:41;98019.72;;;4.36;88.05
64679;BME280;51094;53.864;27.676;2024-02-23T05:07:09;98030.16;;;4.47;87.38
64679;BME280;51094;53.864;27.676;2024-02-23T05:09:35;98033.03;;;4.43;87.59
64679;BME280;51094;53.864;27.676;2024-02-23T05:12:03;98067.16;;;4.59;88.11
64679;BME280;51094;53.864;27.676;2024-02-23T05:14:30;98061.19;;;4.58;87.94
64679;BME280;51094;53.864;27.676;2024-02-23T05:16:59;98060.16;;;4.61;87.35
64679;BME280;51094;53.864;27.676;2024-02-23T05:19:26;98011.72;;;4.28;87.44
64679;BME280;51094;53.864;27.676;2024-02-23T05:21:53;98009.13;;;4.28;87.78
64679;BME280;51094;53.864;27.676;2024-02-23T05:24:20;98064.38;;;4.62;88.31
64679;BME280;51094;53.864;27.676;2024-02-23T05:26:47;98055.84;;;4.61;88.31
64679;BME280;51094;53.864;27.676;2024-02-23T05:29:15;98057.16;;;4.54;88.02
64679;BME280;51094;53.864;27.676;2024-02-23T05:31:47;98088.06;;;4.54;87.91
64679;BME280;51094;53.864;27.676;2024-02-23T05:34:15;98049.25;;;4.57;88.90
64679;BME280;51094;53.864;27.676;2024-02-23T05:36:42;98071.69;;;4.55;88.67
64679;BME280;51094;53.864;27.676;2024-02-23T05:39:10;98073.97;;;4.60;89.32
64679;BME280;51094;53.864;27.676;2024-02-23T05:41:39;98080.97;;;4.58;88.83
64679;BME280;51094;53.864;27.676;2024-02-23T05:44:06;97976.00;;;3.96;89.03
64679;BME280;51094;53.864;27.676;2024-02-23T05:46:36;97925.09;;;3.62;89.07
64679;BME280;51094;53.864;27.676;2024-02-23T05:49:04;98082.84;;;4.68;88.46
64679;BME280;51094;53.864;27.676;2024-02-23T05:51:31;98082.63;;;4.72;89.21
64679;BME280;51094;53.864;27.676;2024-02-23T05:53:58;98083.47;;;4.72;88.71
64679;BME280;51094;53.864;27.676;2024-02-23T05:56:26;98077.50;;;4.72;89.23
64679;BME280;51094;53.864;27.676;2024-02-23T05:58:53;98065.94;;;4.64;88.89
64679;BME280;51094;53.864;27.676;2024-02-23T06:01:21;98089.44;;;4.73;88.42
64679;BME280;51094;53.864;27.676;2024-02-23T06:03:48;98067.97;;;4.59;88.84
64679;BME280;51094;53.864;27.676;2024-02-23T06:06:15;98087.88;;;4.70;88.10
64679;BME280;51094;53.864;27.676;2024-02-23T06:08:42;97910.06;;;3.56;88.37
64679;BME280;51094;53.864;27.676;2024-02-23T06:11:09;98072.16;;;4.48;88.81
64679;BME280;51094;53.864;27.676;2024-02-23T06:13:40;98072.59;;;4.54;88.91
64679;BME280;51094;53.864;27.676;2024-02-23T06:16:10;98089.13;;;4.64;88.67
64679;BME280;51094;53.864;27.676;2024-02-23T06:18:38;98094.25;;;4.64;89.46
64679;BME280;51094;53.864;27.676;2024-02-23T06:21:26;98083.53;;;4.58;89.15
64679;BME280;51094;53.864;27.676;2024-02-23T06:23:59;98054.97;;;4.48;89.51
64679;BME280;51094;53.864;27.676;2024-02-23T06:26:26;98087.53;;;4.49;88.64
64679;BME280;51094;53.864;27.676;2024-02-23T06:28:58;98081.78;;;4.58;89.64
64679;BME280;51094;53.864;27.676;2024-02-23T06:31:25;98112.41;;;4.76;89.30
64679;BME280;51094;53.864;27.676;2024-02-23T06:33:56;98118.59;;;4.73;88.38
64679;BME280;51094;53.864;27.676;2024-02-23T06:36:23;97970.66;;;3.87;88.89
64679;BME280;51094;53.864;27.676;2024-02-23T06:38:50;98098.09;;;4.72;89.26
64679;BME280;51094;53.864;27.676;2024-02-23T06:41:18;98099.91;;;4.57;88.82
64679;BME280;51094;53.864;27.676;2024-02-23T06:43:46;98111.78;;;4.72;88.75
64679;BME280;51094;53.864;27.676;2024-02-23T06:46:13;98106.53;;;4.74;89.19
64679;BME280;51094;53.864;27.676;2024-02-23T06:48:40;98094.25;;;4.64;89.49
64679;BME280;51094;53.864;27.676;2024-02-23T06:51:07;98091.88;;;4.61;88.47
64679;BME280;51094;53.864;27.676;2024-02-23T06:53:37;98012.25;;;4.06;88.99
64679;BME280;51094;53.864;27.676;2024-02-23T06:56:05;98046.09;;;4.40;88.61
64679;BME280;51094;53.864;27.676;2024-02-23T06:58:35;98117.03;;;4.83;89.57
64679;BME280;51094;53.864;27.676;2024-02-23T07:01:03;97939.56;;;3.77;88.61
64679;BME280;51094;53.864;27.676;2024-02-23T07:03:33;98112.53;;;4.87;88.95
64679;BME280;51094;53.864;27.676;2024-02-23T07:06:02;98098.50;;;4.78;88.48
64679;BME280;51094;53.864;27.676;2024-02-23T07:08:30;98079.44;;;4.68;88.87
64679;BME280;51094;53.864;27.676;2024-02-23T07:10:57;98102.94;;;4.89;89.05
64679;BME280;51094;53.864;27.676;2024-02-23T07:13:27;98125.75;;;5.08;88.51
64679;BME280;51094;53.864;27.676;2024-02-23T07:15:56;98128.44;;;5.06;88.56
64679;BME280;51094;53.864;27.676;2024-02-23T07:18:27;98120.69;;;5.06;87.82
64679;BME280;51094;53.864;27.676;2024-02-23T07:20:57;98108.63;;;4.94;88.34
64679;BME280;51094;53.864;27.676;2024-02-23T07:23:24;98081.28;;;4.79;87.92
64679;BME280;51094;53.864;27.676;2024-02-23T07:25:53;98150.50;;;5.10;87.66
64679;BME280;51094;53.864;27.676;2024-02-23T07:28:21;98069.88;;;4.70;88.01
64679;BME280;51094;53.864;27.676;2024-02-23T07:30:50;98140.91;;;5.12;87.70
64679;BME280;51094;53.864;27.676;2024-02-23T07:33:17;98143.69;;;5.09;87.70
64679;BME280;51094;53.864;27.676;2024-02-23T07:35:44;98165.22;;;5.08;87.45
64679;BME280;51094;53.864;27.676;2024-02-23T07:38:11;98093.75;;;4.85;87.58
64679;BME280;51094;53.864;27.676;2024-02-23T07:40:38;98126.66;;;4.94;87.09
64679;BME280;51094;53.864;27.676;2024-02-23T07:43:06;98156.25;;;5.01;87.40
64679;BME280;51094;53.864;27.676;2024-02-23T07:45:33;98141.41;;;5.05;88.01
64679;BME280;51094;53.864;27.676;2024-02-23T07:48:04;98133.56;;;4.93;87.90
64679;BME280;51094;53.864;27.676;2024-02-23T07:50:32;98135.94;;;4.96;87.72
64679;BME280;51094;53.864;27.676;2024-02-23T07:52:59;98118.28;;;4.90;87.09
64679;BME280;51094;53.864;27.676;2024-02-23T07:55:26;98147.81;;;5.12;87.51
64679;BME280;51094;53.864;27.676;2024-02-23T07:57:53;98143.28;;;5.15;87.34
64679;BME280;51094;53.864;27.676;2024-02-23T08:00:28;98160.59;;;5.13;86.97
64679;BME280;51094;53.864;27.676;2024-02-23T08:02:55;98160.81;;;5.10;86.92
64679;BME280;51094;53.864;27.676;2024-02-23T08:05:26;98156.56;;;5.09;87.33
64679;BME280;51094;53.864;27.676;2024-02-23T08:07:53;98155.22;;;5.04;87.45
64679;BME280;51094;53.864;27.676;2024-02-23T08:10:20;98146.88;;;5.00;87.96
64679;BME280;51094;53.864;27.676;2024-02-23T08:12:47;98083.22;;;4.62;87.89
64679;BME280;51094;53.864;27.676;2024-02-23T08:15:14;98157.50;;;5.08;87.40
64679;BME280;51094;53.864;27.676;2024-02-23T08:17:42;98140.47;;;4.93;87.42
64679;BME280;51094;53.864;27.676;2024-02-23T08:20:09;98067.78;;;4.62;88.14
64679;BME280;51094;53.864;27.676;2024-02-23T08:22:37;98124.69;;;4.97;87.51
64679;BME280;51094;53.864;27.676;2024-02-23T08:25:12;98117.06;;;4.96;87.27
64679;BME280;51094;53.864;27.676;2024-02-23T08:27:46;98090.25;;;4.73;87.45
64679;BME280;51094;53.864;27.676;2024-02-23T08:30:14;98087.78;;;4.72;87.58
64679;BME280;51094;53.864;27.676;2024-02-23T08:32:41;98152.34;;;5.21;87.90
64679;BME280;51094;53.864;27.676;2024-02-23T08:35:09;98131.72;;;5.08;87.86
64679;BME280;51094;53.864;27.676;2024-02-23T08:37:39;98159.25;;;5.33;87.22
64679;BME280;51094;53.864;27.676;2024-02-23T08:40:08;98130.69;;;5.11;87.44
64679;BME280;51094;53.864;27.676;2024-02-23T08:42:35;98157.09;;;5.27;86.99
64679;BME280;51094;53.864;27.676;2024-02-23T08:45:02;98086.75;;;4.87;86.81
64679;BME280;51094;53.864;27.676;2024-02-23T08:47:29;98164.09;;;5.25;86.95
64679;BME280;51094;53.864;27.676;2024-02-23T08:50:00;98146.59;;;5.17;86.82
64679;BME280;51094;53.864;27.676;2024-02-23T08:52:27;98164.09;;;5.25;86.63
64679;BME280;51094;53.864;27.676;2024-02-23T08:54:54;98159.47;;;5.17;86.35
64679;BME280;51094;53.864;27.676;2024-02-23T08:57:21;98171.94;;;5.23;86.90
64679;BME280;51094;53.864;27.676;2024-02-23T08:59:50;98102.13;;;4.88;87.30
64679;BME280;51094;53.864;27.676;2024-02-23T09:02:17;98087.25;;;4.79;86.00
64679;BME280;51094;53.864;27.676;2024-02-23T09:04:44;98132.75;;;5.06;86.49
64679;BME280;51094;53.864;27.676;2024-02-23T09:07:12;98165.94;;;5.23;86.41
64679;BME280;51094;53.864;27.676;2024-02-23T09:09:40;98176.38;;;5.34;86.67
64679;BME280;51094;53.864;27.676;2024-02-23T09:12:09;98154.59;;;5.25;86.69
64679;BME280;51094;53.864;27.676;2024-02-23T09:14:37;98172.78;;;5.49;86.36
64679;BME280;51094;53.864;27.676;2024-02-23T09:17:06;98177.84;;;5.51;86.39
64679;BME280;51094;53.864;27.676;2024-02-23T09:19:35;98160.59;;;5.39;85.94
64679;BME280;51094;53.864;27.676;2024-02-23T09:22:04;98171.84;;;5.38;85.84
64679;BME280;51094;53.864;27.676;2024-02-23T09:24:33;98025.13;;;4.58;85.80
64679;BME280;51094;53.864;27.676;2024-02-23T09:27:02;98102.34;;;5.11;85.94
64679;BME280;51094;53.864;27.676;2024-02-23T09:29:30;98162.47;;;5.37;85.27
64679;BME280;51094;53.864;27.676;2024-02-23T09:31:57;98178.56;;;5.53;85.30
64679;BME280;51094;53.864;27.676;2024-02-23T09:34:24;98140.19;;;5.35;85.70
64679;BME280;51094;53.864;27.676;2024-02-23T09:36:55;98157.09;;;5.40;85.58
64679;BME280;51094;53.864;27.676;2024-02-23T09:39:25;98191.31;;;5.67;85.29
64679;BME280;51094;53.864;27.676;2024-02-23T09:41:56;98186.78;;;5.71;85.36
64679;BME280;51094;53.864;27.676;2024-02-23T09:44:32;98172.28;;;5.57;85.27
64679;BME280;51094;53.864;27.676;2024-02-23T09:47:02;98190.00;;;5.74;85.61
64679;BME280;51094;53.864;27.676;2024-02-23T09:49:39;98187.19;;;5.77;85.08
64679;BME280;51094;53.864;27.676;2024-02-23T09:52:10;98138.53;;;5.34;84.63
64679;BME280;51094;53.864;27.676;2024-02-23T09:54:37;98203.72;;;5.75;85.21
64679;BME280;51094;53.864;27.676;2024-02-23T09:57:08;98142.25;;;5.43;84.64
64679;BME280;51094;53.864;27.676;2024-02-23T09:59:36;98196.59;;;5.78;84.72
64679;BME280;51094;53.864;27.676;2024-02-23T10:02:16;97969.72;;;4.40;84.50
64679;BME280;51094;53.864;27.676;2024-02-23T10:04:44;98171.03;;;5.62;84.27
64679;BME280;51094;53.864;27.676;2024-02-23T10:07:16;98176.06;;;5.64;84.15
64679;BME280;51094;53.864;27.676;2024-02-23T10:09:48;98168.66;;;5.59;84.20
64679;BME280;51094;53.864;27.676;2024-02-23T10:12:18;98177.13;;;5.61;84.30
64679;BME280;51094;53.864;27.676;2024-02-23T10:14:45;98169.03;;;5.66;84.56
64679;BME280;51094;53.864;27.676;2024-02-23T10:17:13;98185.75;;;5.86;84.57
64679;BME280;51094;53.864;27.676;2024-02-23T10:19:44;98201.88;;;6.02;84.36
64679;BME280;51094;53.864;27.676;2024-02-23T10:22:12;98204.94;;;6.07;84.08
64679;BME280;51094;53.864;27.676;2024-02-23T10:24:45;98193.78;;;6.07;83.45
64679;BME280;51094;53.864;27.676;2024-02-23T10:27:12;98125.44;;;5.63;83.64
64679;BME280;51094;53.864;27.676;2024-02-23T10:29:41;98168.69;;;6.09;83.45
64679;BME280;51094;53.864;27.676;2024-02-23T10:32:15;98198.41;;;6.27;82.87
64679;BME280;51094;53.864;27.676;2024-02-23T10:34:48;98174.25;;;6.28;82.69
64679;BME280;51094;53.864;27.676;2024-02-23T10:37:16;98186.59;;;6.48;82.77
64679;BME280;51094;53.864;27.676;2024-02-23T10:39:45;98184.97;;;6.58;82.67
64679;BME280;51094;53.864;27.676;2024-02-23T10:42:13;98120.81;;;6.41;82.54
64679;BME280;51094;53.864;27.676;2024-02-23T10:44:46;98167.38;;;6.87;82.64
64679;BME280;51094;53.864;27.676;2024-02-23T10:47:17;98157.19;;;6.97;81.37
64679;BME280;51094;53.864;27.676;2024-02-23T10:49:49;98177.19;;;7.06;80.52
64679;BME280;51094;53.864;27.676;2024-02-23T10:52:17;98137.59;;;6.71;80.81
64679;BME280;51094;53.864;27.676;2024-02-23T10:54:46;98217.38;;;7.10;81.39
64679;BME280;51094;53.864;27.676;2024-02-23T10:57:22;98139.50;;;6.80;79.94
64679;BME280;51094;53.864;27.676;2024-02-23T10:59:49;98182.69;;;7.01;80.88
64679;BME280;51094;53.864;27.676;2024-02-23T11:02:19;98162.22;;;6.63;79.88
64679;BME280;51094;53.864;27.676;2024-02-23T11:04:55;98153.38;;;6.79;79.73
64679;BME280;51094;53.864;27.676;2024-02-23T11:07:24;98160.28;;;6.78;79.89
64679;BME280;51094;53.864;27.676;2024-02-23T11:09:59;98140.13;;;6.83;79.96
64679;BME280;51094;53.864;27.676;2024-02-23T11:12:29;98188.44;;;7.29;80.17
64679;BME280;51094;53.864;27.676;2024-02-23T11:15:00;98169.88;;;7.35;80.02
64679;BME280;51094;53.864;27.676;2024-02-23T11:17:32;98083.78;;;7.11;78.80
64679;BME280;51094;53.864;27.676;2024-02-23T11:20:05;98187.22;;;7.79;79.34
64679;BME280;51094;53.864;27.676;2024-02-23T11:22:34;98147.31;;;7.59;79.06
64679;BME280;51094;53.864;27.676;2024-02-23T11:25:06;98217.66;;;7.98;78.98
64679;BME280;51094;53.864;27.676;2024-02-23T11:27:49;98178.84;;;7.87;77.87
64679;BME280;51094;53.864;27.676;2024-02-23T11:30:17;98191.06;;;7.96;77.04
64679;BME280;51094;53.864;27.676;2024-02-23T11:32:48;98200.84;;;8.04;77.64
64679;BME280;51094;53.864;27.676;2024-02-23T11:35:16;98098.41;;;7.34;76.27
64679;BME280;51094;53.864;27.676;2024-02-23T11:37:53;98205.69;;;8.08;76.68
64679;BME280;51094;53.864;27.676;2024-02-23T11:40:32;98180.72;;;8.07;77.17
64679;BME280;51094;53.864;27.676;2024-02-23T11:42:59;98163.66;;;7.93;76.01
64679;BME280;51094;53.864;27.676;2024-02-23T11:45:29;98202.72;;;8.01;74.86
64679;BME280;51094;53.864;27.676;2024-02-23T11:47:58;98147.66;;;7.88;75.00
64679;BME280;51094;53.864;27.676;2024-02-23T11:50:35;98197.31;;;8.16;75.44
64679;BME280;51094;53.864;27.676;2024-02-23T11:53:02;98180.84;;;8.17;74.36
64679;BME280;51094;53.864;27.676;2024-02-23T11:55:31;98195.31;;;8.08;74.06
64679;BME280;51094;53.864;27.676;2024-02-23T11:57:58;98216.84;;;8.20;73.86
64679;BME280;51094;53.864;27.676;2024-02-23T12:00:37;98070.06;;;7.44;74.37
64679;BME280;51094;53.864;27.676;2024-02-23T12:03:04;98212.38;;;8.44;74.13
64679;BME280;51094;53.864;27.676;2024-02-23T12:05:39;98222.28;;;8.82;73.58
64679;BME280;51094;53.864;27.676;2024-02-23T12:08:07;98187.44;;;8.75;71.93
64679;BME280;51094;53.864;27.676;2024-02-23T12:10:34;98207.00;;;8.68;71.75
64679;BME280;51094;53.864;27.676;2024-02-23T12:13:02;98149.88;;;8.15;72.77
64679;BME280;51094;53.864;27.676;2024-02-23T12:15:31;98171.44;;;8.16;71.86
64679;BME280;51094;53.864;27.676;2024-02-23T12:17:58;98222.28;;;8.17;72.08
64679;BME280;51094;53.864;27.676;2024-02-23T12:20:27;98112.59;;;7.40;73.10
64679;BME280;51094;53.864;27.676;2024-02-23T12:22:55;98237.09;;;7.92;72.98
64679;BME280;51094;53.864;27.676;2024-02-23T12:25:23;98206.50;;;7.75;72.92
64679;BME280;51094;53.864;27.676;2024-02-23T12:27:55;98213.22;;;7.78;73.39
64679;BME280;51094;53.864;27.676;2024-02-23T12:30:23;98201.38;;;7.51;73.96
64679;BME280;51094;53.864;27.676;2024-02-23T12:33:05;98224.81;;;7.61;74.22
64679;BME280;51094;53.864;27.676;2024-02-23T12:35:34;98221.59;;;7.46;74.03
64679;BME280;51094;53.864;27.676;2024-02-23T12:38:06;98266.41;;;7.47;74.55
64679;BME280;51094;53.864;27.676;2024-02-23T12:40:33;98213.25;;;7.31;74.75
64679;BME280;51094;53.864;27.676;2024-02-23T12:43:00;98208.97;;;7.19;74.33
64679;BME280;51094;53.864;27.676;2024-02-23T12:45:30;98246.38;;;7.38;75.41
64679;BME280;51094;53.864;27.676;2024-02-23T12:47:57;98215.19;;;7.17;75.08
64679;BME280;51094;53.864;27.676;2024-02-23T12:50:29;98247.69;;;7.32;75.67
64679;BME280;51094;53.864;27.676;2024-02-23T12:52:57;98183.00;;;6.86;75.65
64679;BME280;51094;53.864;27.676;2024-02-23T12:55:24;98248.63;;;7.31;75.35
64679;BME280;51094;53.864;27.676;2024-02-23T12:57:54;98220.94;;;7.20;75.41
64679;BME280;51094;53.864;27.676;2024-02-23T13:00:21;98248.84;;;7.28;75.52
64679;BME280;51094;53.864;27.676;2024-02-23T13:02:48;98222.63;;;6.97;75.73
64679;BME280;51094;53.864;27.676;2024-02-23T13:05:15;98244.38;;;7.06;75.51
64679;BME280;51094;53.864;27.676;2024-02-23T13:07:47;98207.56;;;6.67;75.96
64679;BME280;51094;53.864;27.676;2024-02-23T13:10:14;98259.69;;;7.09;76.26